17°C Temp
15°C Dewpoint
88% Humidity
Temperature
10 KM/H
6 MPH
5 KTS
140°
South East

Wind Speed
Clear
Conditions
Pressure 1018.92 (hPa) - 30.09 (in)
Visibility 6.2 (mi) - 10.0 (km)

Current Conditions
NZAA
Location 257(km)
Metar :NZAA 112030Z AUTO 14005KT 9999 NCD 17/15 Q1019 NOSIG
Wed 11th March 20:30 pm

Airport
  Metar Aviation API Data Provided by https://www.checkwx.com/ PHP scripts by weather34.com ©2020